Time;durP1;ratioP1;P1;durP2;ratioP2;P2;SDS_P1;SDS_P2;PMS_P1;PMS_P2;Temp;Humidity;BMP_temperature;BMP_pressure;BME280_temperature;BME280_humidity;BME280_pressure;Samples;Min_cycle;Max_cycle;Signal;HPM_P1;HPM_P2
2021/06/01 00:06:20;;;;;;;23.77;14.23;;;;;;;6.37;66.31;99846.59;515468;1098;116438;-64
2021/06/01 00:16:26;;;;;;;22.63;15.00;;;;;;;6.24;67.01;99851.47;515501;1093;116432;-65
2021/06/01 00:26:31;;;;;;;13.70;10.63;;;;;;;6.13;66.74;99841.51;515392;1098;115838;-65
2021/06/01 00:36:36;;;;;;;16.57;12.17;;;;;;;6.01;67.04;99851.53;515308;1093;116924;-65
2021/06/01 00:46:41;;;;;;;19.57;11.97;;;;;;;5.90;68.20;99856.30;515556;1098;116026;-65
2021/06/01 00:56:47;;;;;;;19.23;10.80;;;;;;;5.82;67.63;99850.54;515749;1098;116085;-63
2021/06/01 01:07:03;;;;;;;16.53;11.53;;;;;;;5.73;67.79;99844.78;515829;1098;116681;-64
2021/06/01 01:17:11;;;;;;;20.93;12.30;;;;;;;5.64;67.83;99842.53;516210;1098;116112;-64
2021/06/01 01:27:23;;;;;;;17.47;11.37;;;;;;;5.54;68.21;99836.84;514997;1093;116799;-65
2021/06/01 01:37:32;;;;;;;16.67;12.10;;;;;;;5.50;68.77;99832.67;516165;1098;116360;-64
2021/06/01 01:58:04;;;;;;;19.63;13.03;;;;;;;5.33;68.74;99818.54;515483;1093;116505;-65
2021/06/01 02:08:11;;;;;;;14.27;11.90;;;;;;;5.40;68.31;99816.54;515934;1093;116126;-65
2021/06/01 02:18:16;;;;;;;20.63;13.57;;;;;;;5.58;68.56;99816.73;516195;1098;116478;-64
2021/06/01 02:28:29;;;;;;;16.87;11.80;;;;;;;5.81;68.91;99804.55;515906;1098;116355;-65
2021/06/01 02:38:35;;;;;;;16.83;11.63;;;;;;;6.09;69.40;99800.81;514913;1098;116710;-65
2021/06/01 02:48:41;;;;;;;25.97;12.93;;;;;;;6.33;69.05;99793.71;516509;1098;116368;-65
2021/06/01 02:58:48;;;;;;;17.77;11.83;;;;;;;6.62;69.42;99806.40;517316;1098;116621;-64
2021/06/01 03:08:54;;;;;;;20.90;12.85;;;;;;;6.95;69.62;99793.58;515119;1093;117933;-64
2021/06/01 03:18:59;;;;;;;22.65;13.65;;;;;;;7.30;68.78;99787.65;515474;1098;115656;-64
2021/06/01 03:29:04;;;;;;;26.33;14.00;;;;;;;7.73;68.82;99783.86;515579;1093;116105;-65
2021/06/01 03:39:10;;;;;;;25.47;15.37;;;;;;;8.25;68.64;99781.25;515046;1093;116756;-65
2021/06/01 03:49:15;;;;;;;31.57;15.83;;;;;;;8.95;68.02;99777.66;515278;1098;116439;-64
2021/06/01 03:59:20;;;;;;;29.23;16.53;;;;;;;10.52;67.58;99775.76;515029;1098;116624;-65
2021/06/01 04:09:25;;;;;;;18.33;12.67;;;;;;;12.07;63.42;99764.27;514603;1093;116767;-65
2021/06/01 04:19:30;;;;;;;16.53;11.37;;;;;;;12.24;61.77;99768.38;515593;1098;116726;-65
2021/06/01 04:29:35;;;;;;;14.10;11.73;;;;;;;12.21;61.02;99771.20;514621;1093;117388;-65
2021/06/01 04:39:40;;;;;;;16.43;11.70;;;;;;;12.16;60.54;99772.37;516173;1098;117149;-65
2021/06/01 04:49:47;;;;;;;14.73;12.67;;;;;;;12.29;60.20;99779.42;516353;1098;116383;-65
2021/06/01 04:59:52;;;;;;;15.90;11.93;;;;;;;12.48;59.94;99794.80;514304;1098;117180;-65
2021/06/01 05:10:00;;;;;;;12.63;10.90;;;;;;;12.82;59.96;99787.18;516350;1098;116818;-64
2021/06/01 05:20:08;;;;;;;13.55;10.68;;;;;;;13.54;59.19;99788.26;516015;1098;116559;-64
2021/06/01 05:30:18;;;;;;;14.47;10.63;;;;;;;14.03;58.22;99798.75;516284;1098;116435;-65
2021/06/01 05:40:23;;;;;;;17.10;11.10;;;;;;;14.64;57.17;99783.60;515311;1093;117611;-64
2021/06/01 05:50:29;;;;;;;14.93;11.40;;;;;;;14.78;56.29;99790.48;515420;1098;116818;-65
2021/06/01 06:00:34;;;;;;;18.70;12.53;;;;;;;15.65;55.29;99780.90;515083;1098;116172;-65
2021/06/01 06:10:40;;;;;;;15.43;12.50;;;;;;;17.85;53.20;99771.73;517897;1098;116845;-66
2021/06/01 06:20:45;;;;;;;13.87;10.10;;;;;;;17.31;51.14;99781.89;515475;1098;116305;-64
2021/06/01 06:30:50;;;;;;;13.97;9.73;;;;;;;16.61;51.68;99769.40;520735;1098;116673;-65
2021/06/01 06:41:04;;;;;;;10.00;7.80;;;;;;;16.19;51.87;99768.48;516098;1098;116760;-64
2021/06/01 06:51:14;;;;;;;20.77;10.07;;;;;;;16.14;52.82;99757.45;514484;1098;117048;-62
2021/06/01 07:01:20;;;;;;;21.83;12.20;;;;;;;16.77;52.98;99748.52;516622;1092;116711;-62
2021/06/01 07:11:25;;;;;;;10.50;8.80;;;;;;;19.07;50.67;99732.02;515474;1098;153560;-62
2021/06/01 07:21:31;;;;;;;9.33;7.43;;;;;;;19.17;48.04;99745.25;515162;1098;116637;-63
2021/06/01 07:31:36;;;;;;;13.90;6.67;;;;;;;18.53;47.98;99738.00;515678;1093;116401;-64
2021/06/01 07:41:41;;;;;;;11.23;6.60;;;;;;;18.24;48.19;99741.63;514040;1093;116979;-65
2021/06/01 07:51:46;;;;;;;20.23;7.90;;;;;;;19.36;47.85;99730.13;514795;1098;117185;-65
2021/06/01 08:01:51;;;;;;;9.00;5.20;;;;;;;22.20;43.65;99716.63;515810;1098;117185;-68
2021/06/01 08:11:57;;;;;;;9.00;4.37;;;;;;;22.35;41.29;99705.21;514979;1094;116092;-61
2021/06/01 08:22:08;;;;;;;5.47;3.83;;;;;;;22.46;40.72;99701.34;515794;1098;116182;-60
2021/06/01 08:32:16;;;;;;;4.83;3.13;;;;;;;23.03;38.48;99702.05;515514;1098;116109;-58
2021/06/01 08:42:22;;;;;;;7.37;3.03;;;;;;;23.55;38.02;99691.66;514105;1098;117201;-60
2021/06/01 08:52:28;;;;;;;5.13;2.93;;;;;;;23.28;36.04;99688.55;514838;1098;116128;-59
2021/06/01 09:02:33;;;;;;;10.77;3.40;;;;;;;22.71;36.52;99694.05;514932;1098;116321;-56
2021/06/01 09:12:56;;;;;;;5.33;3.23;;;;;;;23.40;36.31;99689.78;514368;1092;178155;-59
2021/06/01 09:23:03;;;;;;;9.30;3.80;;;;;;;24.58;35.13;99696.44;514828;1098;116600;-63
2021/06/01 09:33:08;;;;;;;;;;;;;;;24.62;34.05;99690.51;515538;1098;116629;-61
2021/06/01 09:43:15;;;;;;;9.38;3.33;;;;;;;24.27;33.96;99689.46;515175;1098;103356;-60
2021/06/01 09:53:25;;;;;;;3.28;2.38;;;;;;;23.85;33.39;99681.01;515400;1098;116767;-62
2021/06/01 10:03:41;;;;;;;2.83;2.10;;;;;;;23.30;33.60;99676.62;514989;1098;116745;-59
2021/06/01 10:13:47;;;;;;;9.23;3.23;;;;;;;23.16;33.41;99674.69;515061;1098;116281;-59
2021/06/01 10:23:53;;;;;;;7.90;3.00;;;;;;;23.01;34.02;99674.63;515837;1093;116629;-61
2021/06/01 10:34:01;;;;;;;7.05;2.40;;;;;;;22.81;33.44;99675.92;515778;1093;116762;-60
2021/06/01 10:55:16;;;;;;;3.30;2.13;;;;;;;22.86;33.06;99677.26;515993;1098;116435;-60
2021/06/01 11:05:21;;;;;;;4.50;2.00;;;;;;;23.14;32.84;99663.33;515335;1098;116777;-60
2021/06/01 11:15:34;;;;;;;6.37;2.93;;;;;;;23.40;32.20;99657.64;515487;1098;116142;-60
2021/06/01 11:36:21;;;;;;;9.60;2.97;;;;;;;23.30;31.47;99657.86;514821;1098;116585;-64
2021/06/01 11:46:35;;;;;;;3.35;1.30;;;;;;;22.57;31.47;99654.66;515954;1092;116977;-62
2021/06/01 11:56:48;;;;;;;6.10;2.40;;;;;;;21.77;31.91;99646.55;515741;1098;117556;-61
2021/06/01 12:17:20;;;;;;;6.33;2.27;;;;;;;21.36;33.99;99639.39;515411;1093;116268;-61
2021/06/01 12:27:27;;;;;;;8.20;2.77;;;;;;;21.41;34.04;99631.70;514777;1098;117385;-60
2021/06/01 13:09:28;;;;;;;3.87;2.40;;;;;;;21.43;33.46;99616.37;514343;1093;116477;-62
2021/06/01 13:19:37;;;;;;;10.00;4.63;;;;;;;21.07;34.33;99606.86;516145;1093;116716;-63
2021/06/01 13:40:21;;;;;;;4.40;2.70;;;;;;;20.80;34.77;99607.97;515457;1093;116140;-65
2021/06/01 13:50:34;;;;;;;13.97;3.30;;;;;;;20.84;35.45;99609.36;515748;1097;116418;-63
2021/06/01 14:00:46;;;;;;;6.57;3.07;;;;;;;20.82;35.09;99612.19;515556;1098;116219;-62
2021/06/01 14:21:18;;;;;;;4.37;3.30;;;;;;;20.55;36.95;99624.78;514774;1098;117131;-67
2021/06/01 14:31:40;;;;;;;6.40;3.40;;;;;;;20.01;37.58;99630.39;515423;1093;116358;-64
2021/06/01 17:07:41;;;;;;;9.47;2.57;;;;;;;17.59;44.51;99644.84;515030;1098;116009;-59
2021/06/01 17:17:49;;;;;;;22.90;5.03;;;;;;;17.20;45.49;99652.86;514812;1098;116892;-60
2021/06/01 17:38:19;;;;;;;13.20;3.97;;;;;;;16.34;47.60;99657.70;516579;1098;116796;-59
2021/06/01 17:48:36;;;;;;;8.03;3.03;;;;;;;16.03;48.54;99664.83;514514;1098;170957;-60
2021/06/01 17:58:41;;;;;;;7.70;3.60;;;;;;;15.71;49.97;99660.44;515049;1098;116570;-59
2021/06/01 18:08:54;;;;;;;6.25;5.65;;;;;;;15.33;50.34;99667.97;513851;1093;116513;-59
2021/06/01 18:29:58;;;;;;;9.07;5.70;;;;;;;14.62;52.97;99680.66;514564;1098;116708;-59
2021/06/01 19:22:09;;;;;;;6.13;5.27;;;;;;;13.52;55.27;99737.41;514507;1098;116217;-59
2021/06/01 19:53:35;;;;;;;10.70;7.43;;;;;;;13.11;57.17;99759.70;515287;1098;116563;-59
2021/06/01 20:03:41;;;;;;;10.70;7.60;;;;;;;13.05;57.63;99771.53;515787;1098;116727;-60
2021/06/01 20:13:47;;;;;;;10.47;7.87;;;;;;;13.05;58.12;99763.63;514725;1098;116058;-61
2021/06/01 20:23:56;;;;;;;13.10;8.47;;;;;;;13.04;58.72;99772.48;514509;1097;117107;-59
2021/06/01 20:34:03;;;;;;;13.07;8.57;;;;;;;13.14;58.25;99777.92;515394;1098;116484;-59
2021/06/01 20:44:08;;;;;;;15.93;9.30;;;;;;;13.22;58.04;99775.59;518438;1098;116607;-62
2021/06/01 20:54:15;;;;;;;14.45;8.28;;;;;;;13.23;58.06;99779.91;516741;1098;117090;-63
2021/06/01 21:04:21;;;;;;;11.33;8.10;;;;;;;13.30;58.14;99785.58;515512;1098;116245;-62
2021/06/01 21:14:26;;;;;;;13.90;8.30;;;;;;;13.34;57.99;99783.56;518084;1093;116945;-65
2021/06/01 21:24:33;;;;;;;13.10;7.97;;;;;;;13.41;57.69;99790.91;514506;1098;116586;-62
2021/06/01 21:34:41;;;;;;;8.13;6.67;;;;;;;13.45;57.31;99805.61;514980;1098;117183;-63
2021/06/01 21:44:49;;;;;;;12.27;7.23;;;;;;;13.54;57.04;99812.00;514263;1098;117142;-61
2021/06/01 21:54:55;;;;;;;12.15;6.60;;;;;;;13.54;57.05;99819.92;515263;1098;116686;-62
2021/06/01 22:05:01;;;;;;;11.03;8.17;;;;;;;13.56;57.33;99825.06;515474;1097;117071;-61
2021/06/01 22:16:01;;;;;;;15.03;9.60;;;;;;;13.54;57.48;99829.61;515124;1092;116748;-63
2021/06/01 22:26:07;;;;;;;13.33;8.33;;;;;;;13.51;57.58;99838.61;515471;1098;116370;-62
2021/06/01 22:36:15;;;;;;;11.83;7.83;;;;;;;13.49;57.53;99835.22;515213;1093;116598;-62
2021/06/01 22:46:21;;;;;;;11.73;8.45;;;;;;;13.49;57.33;99840.50;515910;1098;117048;-63
2021/06/01 22:56:28;;;;;;;11.33;9.10;;;;;;;13.45;57.51;99839.05;515671;1094;116117;-62
2021/06/01 23:06:35;;;;;;;10.20;7.80;;;;;;;13.40;57.37;99843.79;515110;1098;117298;-59
2021/06/01 23:28:05;;;;;;;11.47;8.73;;;;;;;13.29;56.95;99858.59;506329;1098;10001694;-59
2021/06/01 23:38:17;;;;;;;10.37;6.70;;;;;;;13.30;56.50;99859.41;514554;1092;116851;-67
2021/06/01 23:58:50;;;;;;;8.93;6.55;;;;;;;13.31;56.25;99869.00;531736;1098;116795;-66
